Boise, ID

7:50 AM MST on February 28, 2015 (GMT -0700)
RAWS BOISE WFO ID US | Change Station
CLOSE
Current Station
Personal Weather Station
Location: Boise, ID
Elevation: 2992 ft
Nearby Weather Stations

Elev 2992 ft 43.57 °N, 116.21 °W | Updated 40 minutes ago

Overcast
Overcast
35 °F
Feels Like 35 °F
N
3
Wind Variable Wind from West
Gusts 8.0 mph

Today
High -- | Low -- °F
--% Chance of Precip.
Yesterday
High -- | Low -- °F
Precip. -- in
7:23 AM 6:32 PM
Waxing Gibbous, 78% visible
Pressure 29.77 in
Visibility 10.0 miles
Clouds Mostly Cloudy 1100 ft
Overcast 2000 ft
Windchill 35 °F
Dew Point 32 °F
Humidity 90%
Rainfall 0.00 in
Snow Depth Not available.
UV 0 out of 12
Pollen .50 out of 12
Air Quality Not available.
Flu Activity Not available.
SPECI KBOI 281442Z 29005KT 10SM BKN011 OVC020 02/00 A2977 RMK AO2

More Conditions Fewer Conditions

Pressure 29.77 in
Visibility 10.0 miles
Clouds Mostly Cloudy 1100 ft
Overcast 2000 ft
Windchill 35 °F
Dew Point 32 °F
Humidity 90%
Rainfall 0.00 in
Snow Depth Not available.
UV 0 out of 12
Pollen .50 out of 12
Air Quality Not available.
Flu Activity Not available.
SPECI KBOI 281442Z 29005KT 10SM BKN011 OVC020 02/00 A2977 RMK AO2

More Conditions Fewer Conditions

10-Day Weather Forecast

Almanac

Astronomy

Feb. 28, 2015 Rise Set
Actual Time
Civil Twilight
Nautical Twilight
Astronomical Twilight
Moon
Length of Visible Light
Length of Day
Tomorrow will be .
, % of the Moon is Illuminated

Today's Extremes

State Highs State Lows

Community

WunderPhotos

Upload Photos

1,801,025 photos uploaded!

WunderBlogs® & News

Nearby

Air Quality

  Air Quality AQ Index Pollutant
Not available.

Snow Depth

Station Depth Elevation

Earthquake Activity

City Distance Mag. Time & Date
Minimum magnitude displayed is 2.5.

Coastal Water Temperatures

Place Temperature

Nearby Weather Stations